sensor_id;sensor_type;location;lat;lon;timestamp;pressure;altitude;pressure_sealevel;temperature;humidity
74310;BME280;62722;51.142;17.052;2023-05-10T00:00:09;100294.03;;;9.20;61.60
74310;BME280;62722;51.142;17.052;2023-05-10T00:02:59;100294.38;;;9.14;61.73
74310;BME280;62722;51.142;17.052;2023-05-10T00:05:26;100291.72;;;9.14;61.86
74310;BME280;62722;51.142;17.052;2023-05-10T00:07:53;100292.84;;;9.10;62.22
74310;BME280;62722;51.142;17.052;2023-05-10T00:10:21;100290.50;;;9.05;62.29
74310;BME280;62722;51.142;17.052;2023-05-10T00:12:48;100281.09;;;9.01;62.63
74310;BME280;62722;51.142;17.052;2023-05-10T00:15:16;100286.44;;;9.00;62.47
74310;BME280;62722;51.142;17.052;2023-05-10T00:17:43;100289.13;;;8.98;62.67
74310;BME280;62722;51.142;17.052;2023-05-10T00:20:12;100278.97;;;8.92;63.01
74310;BME280;62722;51.142;17.052;2023-05-10T00:22:39;100277.47;;;8.88;63.07
74310;BME280;62722;51.142;17.052;2023-05-10T00:25:08;100282.06;;;8.85;63.12
74310;BME280;62722;51.142;17.052;2023-05-10T00:27:35;100278.69;;;8.83;63.27
74310;BME280;62722;51.142;17.052;2023-05-10T00:30:04;100280.72;;;8.77;63.22
74310;BME280;62722;51.142;17.052;2023-05-10T00:32:31;100282.59;;;8.75;63.52
74310;BME280;62722;51.142;17.052;2023-05-10T00:34:59;100278.34;;;8.73;63.66
74310;BME280;62722;51.142;17.052;2023-05-10T00:37:28;100278.53;;;8.70;63.55
74310;BME280;62722;51.142;17.052;2023-05-10T00:39:55;100288.19;;;8.69;63.97
74310;BME280;62722;51.142;17.052;2023-05-10T00:42:22;100278.78;;;8.65;64.14
74310;BME280;62722;51.142;17.052;2023-05-10T00:44:50;100277.25;;;8.61;64.03
74310;BME280;62722;51.142;17.052;2023-05-10T00:47:17;100273.88;;;8.59;64.47
74310;BME280;62722;51.142;17.052;2023-05-10T00:49:45;100263.81;;;8.52;64.62
74310;BME280;62722;51.142;17.052;2023-05-10T00:52:13;100270.94;;;8.50;64.78
74310;BME280;62722;51.142;17.052;2023-05-10T00:54:42;100277.19;;;8.47;65.13
74310;BME280;62722;51.142;17.052;2023-05-10T00:57:09;100271.28;;;8.44;64.98
74310;BME280;62722;51.142;17.052;2023-05-10T00:59:37;100265.44;;;8.39;65.35
74310;BME280;62722;51.142;17.052;2023-05-10T01:02:05;100263.81;;;8.36;65.27
74310;BME280;62722;51.142;17.052;2023-05-10T01:04:32;100263.25;;;8.31;66.09
74310;BME280;62722;51.142;17.052;2023-05-10T01:07:00;100265.09;;;8.29;65.91
74310;BME280;62722;51.142;17.052;2023-05-10T01:09:27;100264.50;;;8.24;66.00
74310;BME280;62722;51.142;17.052;2023-05-10T01:11:56;100257.72;;;8.20;66.23
74310;BME280;62722;51.142;17.052;2023-05-10T01:14:25;100256.34;;;8.13;66.81
74310;BME280;62722;51.142;17.052;2023-05-10T01:16:52;100255.66;;;8.09;66.83
74310;BME280;62722;51.142;17.052;2023-05-10T01:19:23;100254.66;;;8.12;66.55
74310;BME280;62722;51.142;17.052;2023-05-10T01:21:58;100255.81;;;8.06;67.23
74310;BME280;62722;51.142;17.052;2023-05-10T01:24:56;100256.09;;;8.02;67.11
74310;BME280;62722;51.142;17.052;2023-05-10T01:27:55;100247.59;;;7.97;67.54
74310;BME280;62722;51.142;17.052;2023-05-10T01:30:56;100259.97;;;7.95;67.66
74310;BME280;62722;51.142;17.052;2023-05-10T01:33:35;100256.75;;;7.90;67.94
74310;BME280;62722;51.142;17.052;2023-05-10T01:36:05;100253.34;;;7.88;68.05
74310;BME280;62722;51.142;17.052;2023-05-10T01:38:42;100260.38;;;7.87;68.23
74310;BME280;62722;51.142;17.052;2023-05-10T01:41:20;100263.28;;;7.82;68.30
74310;BME280;62722;51.142;17.052;2023-05-10T01:43:57;100255.72;;;7.76;68.92
74310;BME280;62722;51.142;17.052;2023-05-10T01:46:33;100265.22;;;7.79;68.70
74310;BME280;62722;51.142;17.052;2023-05-10T01:49:07;100253.78;;;7.80;68.85
74310;BME280;62722;51.142;17.052;2023-05-10T01:51:39;100260.81;;;7.79;68.50
74310;BME280;62722;51.142;17.052;2023-05-10T01:54:08;100254.03;;;7.75;69.02
74310;BME280;62722;51.142;17.052;2023-05-10T01:56:37;100257.66;;;7.73;69.15
74310;BME280;62722;51.142;17.052;2023-05-10T01:59:12;100250.88;;;7.69;69.42
74310;BME280;62722;51.142;17.052;2023-05-10T02:01:40;100249.03;;;7.71;69.03
74310;BME280;62722;51.142;17.052;2023-05-10T02:04:11;100245.56;;;7.70;69.15
74310;BME280;62722;51.142;17.052;2023-05-10T02:06:42;100249.28;;;7.66;69.11
74310;BME280;62722;51.142;17.052;2023-05-10T02:09:10;100245.09;;;7.62;69.64
74310;BME280;62722;51.142;17.052;2023-05-10T02:11:39;100238.31;;;7.58;69.41
74310;BME280;62722;51.142;17.052;2023-05-10T02:14:09;100244.44;;;7.59;69.34
74310;BME280;62722;51.142;17.052;2023-05-10T02:16:39;100240.03;;;7.59;69.50
74310;BME280;62722;51.142;17.052;2023-05-10T02:19:07;100240.03;;;7.59;70.07
74310;BME280;62722;51.142;17.052;2023-05-10T02:21:37;100233.91;;;7.59;69.84
74310;BME280;62722;51.142;17.052;2023-05-10T02:24:07;100233.25;;;7.55;69.66
74310;BME280;62722;51.142;17.052;2023-05-10T02:26:36;100236.19;;;7.49;70.19
74310;BME280;62722;51.142;17.052;2023-05-10T02:29:05;100233.41;;;7.52;70.41
74310;BME280;62722;51.142;17.052;2023-05-10T02:31:34;100223.81;;;7.51;69.96
74310;BME280;62722;51.142;17.052;2023-05-10T02:34:06;100235.25;;;7.50;70.22
74310;BME280;62722;51.142;17.052;2023-05-10T02:36:36;100227.22;;;7.53;70.18
74310;BME280;62722;51.142;17.052;2023-05-10T02:39:06;100241.34;;;7.51;70.33
74310;BME280;62722;51.142;17.052;2023-05-10T02:41:38;100233.56;;;7.49;70.36
74310;BME280;62722;51.142;17.052;2023-05-10T02:44:07;100226.63;;;7.48;70.35
74310;BME280;62722;51.142;17.052;2023-05-10T02:46:36;100233.75;;;7.46;70.41
74310;BME280;62722;51.142;17.052;2023-05-10T02:49:03;100239.00;;;7.46;70.54
74310;BME280;62722;51.142;17.052;2023-05-10T02:51:34;100232.22;;;7.42;70.61
74310;BME280;62722;51.142;17.052;2023-05-10T02:54:07;100228.72;;;7.42;70.49
74310;BME280;62722;51.142;17.052;2023-05-10T02:56:42;100230.50;;;7.41;70.90
74310;BME280;62722;51.142;17.052;2023-05-10T02:59:14;100235.69;;;7.43;70.64
74310;BME280;62722;51.142;17.052;2023-05-10T03:01:41;100235.75;;;7.41;70.72
74310;BME280;62722;51.142;17.052;2023-05-10T03:04:08;100237.75;;;7.36;70.66
74310;BME280;62722;51.142;17.052;2023-05-10T03:06:36;100237.75;;;7.36;71.04
74310;BME280;62722;51.142;17.052;2023-05-10T03:09:05;100231.66;;;7.35;71.11
74310;BME280;62722;51.142;17.052;2023-05-10T03:11:43;100235.25;;;7.34;71.55
74310;BME280;62722;51.142;17.052;2023-05-10T03:14:21;100243.34;;;7.30;71.55
74310;BME280;62722;51.142;17.052;2023-05-10T03:16:54;100242.56;;;7.28;71.20
74310;BME280;62722;51.142;17.052;2023-05-10T03:19:27;100243.34;;;7.30;71.63
74310;BME280;62722;51.142;17.052;2023-05-10T03:21:59;100231.25;;;7.27;71.31
74310;BME280;62722;51.142;17.052;2023-05-10T03:24:34;100229.31;;;7.31;71.52
74310;BME280;62722;51.142;17.052;2023-05-10T03:27:03;100242.31;;;7.32;71.74
74310;BME280;62722;51.142;17.052;2023-05-10T03:29:31;100244.19;;;7.30;71.20
74310;BME280;62722;51.142;17.052;2023-05-10T03:31:59;100233.59;;;7.32;71.54
74310;BME280;62722;51.142;17.052;2023-05-10T03:34:30;100244.19;;;7.30;71.76
74310;BME280;62722;51.142;17.052;2023-05-10T03:36:57;100231.94;;;7.31;71.98
74310;BME280;62722;51.142;17.052;2023-05-10T03:39:25;100234.69;;;7.28;71.47
74310;BME280;62722;51.142;17.052;2023-05-10T03:41:53;100238.09;;;7.30;72.01
74310;BME280;62722;51.142;17.052;2023-05-10T03:44:21;100229.31;;;7.31;71.66
74310;BME280;62722;51.142;17.052;2023-05-10T03:46:48;100229.44;;;7.28;72.12
74310;BME280;62722;51.142;17.052;2023-05-10T03:49:16;100229.13;;;7.34;71.82
74310;BME280;62722;51.142;17.052;2023-05-10T03:51:43;100234.22;;;7.37;72.16
74310;BME280;62722;51.142;17.052;2023-05-10T03:54:10;100229.66;;;7.41;72.02
74310;BME280;62722;51.142;17.052;2023-05-10T03:56:38;100231.25;;;7.43;71.47
74310;BME280;62722;51.142;17.052;2023-05-10T03:59:06;100232.78;;;7.47;71.82
74310;BME280;62722;51.142;17.052;2023-05-10T04:01:35;100220.28;;;7.52;71.74
74310;BME280;62722;51.142;17.052;2023-05-10T04:04:02;100219.00;;;7.59;71.23
74310;BME280;62722;51.142;17.052;2023-05-10T04:06:30;100221.28;;;7.65;71.19
74310;BME280;62722;51.142;17.052;2023-05-10T04:08:57;100224.38;;;7.73;71.00
74310;BME280;62722;51.142;17.052;2023-05-10T04:11:29;100225.81;;;7.79;70.56
74310;BME280;62722;51.142;17.052;2023-05-10T04:13:57;100225.81;;;7.95;69.99
74310;BME280;62722;51.142;17.052;2023-05-10T04:16:26;100227.88;;;8.05;69.31
74310;BME280;62722;51.142;17.052;2023-05-10T04:18:53;100228.00;;;8.18;69.15
74310;BME280;62722;51.142;17.052;2023-05-10T04:21:20;100232.63;;;8.30;69.04
74310;BME280;62722;51.142;17.052;2023-05-10T04:23:47;100225.88;;;8.40;68.02
74310;BME280;62722;51.142;17.052;2023-05-10T04:26:15;100226.13;;;8.51;67.80
74310;BME280;62722;51.142;17.052;2023-05-10T04:28:42;100216.75;;;8.61;66.96
74310;BME280;62722;51.142;17.052;2023-05-10T04:31:09;100220.56;;;8.71;67.04
74310;BME280;62722;51.142;17.052;2023-05-10T04:33:38;100224.41;;;8.80;66.52
74310;BME280;62722;51.142;17.052;2023-05-10T04:36:06;100212.44;;;8.90;65.69
74310;BME280;62722;51.142;17.052;2023-05-10T04:38:33;100218.19;;;8.97;65.51
74310;BME280;62722;51.142;17.052;2023-05-10T04:41:05;100221.94;;;9.07;65.40
74310;BME280;62722;51.142;17.052;2023-05-10T04:43:33;100225.91;;;9.14;64.84
74310;BME280;62722;51.142;17.052;2023-05-10T04:46:01;100222.72;;;9.23;64.69
74310;BME280;62722;51.142;17.052;2023-05-10T04:48:28;100220.56;;;9.29;64.45
74310;BME280;62722;51.142;17.052;2023-05-10T04:50:57;100216.63;;;9.37;64.26
74310;BME280;62722;51.142;17.052;2023-05-10T04:53:25;100215.22;;;9.45;64.04
74310;BME280;62722;51.142;17.052;2023-05-10T04:55:52;100228.75;;;9.53;63.82
74310;BME280;62722;51.142;17.052;2023-05-10T04:58:19;100226.66;;;9.58;63.76
74310;BME280;62722;51.142;17.052;2023-05-10T05:00:47;100222.50;;;9.68;63.53
74310;BME280;62722;51.142;17.052;2023-05-10T05:03:14;100215.09;;;9.75;62.65
74310;BME280;62722;51.142;17.052;2023-05-10T05:05:42;100228.72;;;9.82;62.04
74310;BME280;62722;51.142;17.052;2023-05-10T05:08:11;100224.00;;;9.87;62.34
74310;BME280;62722;51.142;17.052;2023-05-10T05:10:39;100226.06;;;9.96;61.74
74310;BME280;62722;51.142;17.052;2023-05-10T05:13:07;100224.00;;;10.01;61.35
74310;BME280;62722;51.142;17.052;2023-05-10T05:15:34;100223.50;;;10.08;61.59
74310;BME280;62722;51.142;17.052;2023-05-10T05:18:02;100219.72;;;10.12;61.32
74310;BME280;62722;51.142;17.052;2023-05-10T05:20:32;100224.34;;;10.23;60.62
74310;BME280;62722;51.142;17.052;2023-05-10T05:22:59;100218.66;;;10.29;60.36
74310;BME280;62722;51.142;17.052;2023-05-10T05:25:28;100226.50;;;10.43;59.61
74310;BME280;62722;51.142;17.052;2023-05-10T05:27:56;100224.44;;;10.48;59.46
74310;BME280;62722;51.142;17.052;2023-05-10T05:30:23;100218.84;;;10.53;59.42
74310;BME280;62722;51.142;17.052;2023-05-10T05:32:50;100220.31;;;10.57;58.84
74310;BME280;62722;51.142;17.052;2023-05-10T05:35:18;100223.63;;;10.60;59.68
74310;BME280;62722;51.142;17.052;2023-05-10T05:37:45;100215.28;;;10.66;59.74
74310;BME280;62722;51.142;17.052;2023-05-10T05:40:13;100216.66;;;10.72;59.23
74310;BME280;62722;51.142;17.052;2023-05-10T05:42:42;100216.28;;;10.78;59.16
74310;BME280;62722;51.142;17.052;2023-05-10T05:45:09;100227.47;;;10.94;57.38
74310;BME280;62722;51.142;17.052;2023-05-10T05:47:38;100212.91;;;11.01;57.93
74310;BME280;62722;51.142;17.052;2023-05-10T05:50:06;100217.78;;;11.07;57.88
74310;BME280;62722;51.142;17.052;2023-05-10T05:52:34;100221.56;;;11.16;58.00
74310;BME280;62722;51.142;17.052;2023-05-10T05:55:01;100207.13;;;11.21;58.40
74310;BME280;62722;51.142;17.052;2023-05-10T05:57:29;100219.47;;;11.34;57.04
74310;BME280;62722;51.142;17.052;2023-05-10T05:59:58;100211.22;;;11.38;56.50
74310;BME280;62722;51.142;17.052;2023-05-10T06:02:25;100208.88;;;11.46;56.00
74310;BME280;62722;51.142;17.052;2023-05-10T06:04:52;100218.84;;;11.43;56.75
74310;BME280;62722;51.142;17.052;2023-05-10T06:07:20;100213.78;;;11.52;56.12
74310;BME280;62722;51.142;17.052;2023-05-10T06:09:47;100210.25;;;11.64;56.01
74310;BME280;62722;51.142;17.052;2023-05-10T06:12:15;100211.63;;;11.57;56.73
74310;BME280;62722;51.142;17.052;2023-05-10T06:14:42;100213.41;;;11.69;56.36
74310;BME280;62722;51.142;17.052;2023-05-10T06:17:11;100220.94;;;11.76;56.95
74310;BME280;62722;51.142;17.052;2023-05-10T06:19:38;100222.53;;;11.78;57.69
74310;BME280;62722;51.142;17.052;2023-05-10T06:22:05;100224.91;;;11.94;56.58
74310;BME280;62722;51.142;17.052;2023-05-10T06:24:33;100227.44;;;12.08;55.49
74310;BME280;62722;51.142;17.052;2023-05-10T06:27:00;100224.22;;;12.15;55.02
74310;BME280;62722;51.142;17.052;2023-05-10T06:29:28;100218.25;;;12.25;54.27
74310;BME280;62722;51.142;17.052;2023-05-10T06:31:55;100218.22;;;12.37;54.09
74310;BME280;62722;51.142;17.052;2023-05-10T06:34:24;100217.75;;;12.43;53.88
74310;BME280;62722;51.142;17.052;2023-05-10T06:36:51;100214.63;;;12.49;54.37
74310;BME280;62722;51.142;17.052;2023-05-10T06:39:19;100206.94;;;12.46;54.87
74310;BME280;62722;51.142;17.052;2023-05-10T06:41:46;100212.59;;;12.53;55.08
74310;BME280;62722;51.142;17.052;2023-05-10T06:44:13;100205.31;;;12.67;54.47
74310;BME280;62722;51.142;17.052;2023-05-10T06:46:41;100207.56;;;12.85;54.15
74310;BME280;62722;51.142;17.052;2023-05-10T06:49:08;100208.91;;;13.01;53.08
74310;BME280;62722;51.142;17.052;2023-05-10T06:51:37;100205.56;;;12.99;53.81
74310;BME280;62722;51.142;17.052;2023-05-10T06:54:04;100204.50;;;13.13;53.76
74310;BME280;62722;51.142;17.052;2023-05-10T06:56:32;100214.41;;;13.22;53.56
74310;BME280;62722;51.142;17.052;2023-05-10T06:59:00;100206.00;;;13.28;53.28
74310;BME280;62722;51.142;17.052;2023-05-10T07:01:27;100200.81;;;13.38;52.73
74310;BME280;62722;51.142;17.052;2023-05-10T07:03:54;100201.78;;;13.37;53.54
74310;BME280;62722;51.142;17.052;2023-05-10T07:06:22;100200.19;;;13.34;53.76
74310;BME280;62722;51.142;17.052;2023-05-10T07:08:50;100198.66;;;13.54;53.02
74310;BME280;62722;51.142;17.052;2023-05-10T07:11:18;100198.78;;;13.52;52.98
74310;BME280;62722;51.142;17.052;2023-05-10T07:13:45;100196.00;;;13.54;52.38
74310;BME280;62722;51.142;17.052;2023-05-10T07:16:13;100198.78;;;13.52;53.24
74310;BME280;62722;51.142;17.052;2023-05-10T07:18:40;100192.63;;;13.74;52.35
74310;BME280;62722;51.142;17.052;2023-05-10T07:21:07;100193.56;;;13.84;51.94
74310;BME280;62722;51.142;17.052;2023-05-10T07:23:35;100190.56;;;13.89;52.19
74310;BME280;62722;51.142;17.052;2023-05-10T07:26:04;100188.59;;;13.91;53.13
74310;BME280;62722;51.142;17.052;2023-05-10T07:28:31;100194.16;;;13.88;53.26
74310;BME280;62722;51.142;17.052;2023-05-10T07:30:59;100172.31;;;13.95;53.14
74310;BME280;62722;51.142;17.052;2023-05-10T07:33:26;100179.00;;;14.22;52.34
74310;BME280;62722;51.142;17.052;2023-05-10T07:35:53;100178.88;;;14.23;52.84
74310;BME280;62722;51.142;17.052;2023-05-10T07:38:20;100181.63;;;14.44;52.30
74310;BME280;62722;51.142;17.052;2023-05-10T07:40:48;100176.78;;;14.38;52.50
74310;BME280;62722;51.142;17.052;2023-05-10T07:43:16;100170.00;;;14.45;52.97
74310;BME280;62722;51.142;17.052;2023-05-10T07:45:44;100178.38;;;14.40;52.96
74310;BME280;62722;51.142;17.052;2023-05-10T07:48:11;100165.59;;;14.34;53.27
74310;BME280;62722;51.142;17.052;2023-05-10T07:50:38;100174.50;;;14.44;53.43
74310;BME280;62722;51.142;17.052;2023-05-10T07:53:06;100171.78;;;14.55;52.42
74310;BME280;62722;51.142;17.052;2023-05-10T07:55:33;100184.75;;;14.70;51.64
74310;BME280;62722;51.142;17.052;2023-05-10T07:58:01;100187.16;;;14.73;52.30
74310;BME280;62722;51.142;17.052;2023-05-10T08:00:30;100173.75;;;14.74;53.65
74310;BME280;62722;51.142;17.052;2023-05-10T08:02:57;100171.53;;;14.79;53.06
74310;BME280;62722;51.142;17.052;2023-05-10T08:05:24;100173.22;;;15.01;52.82
74310;BME280;62722;51.142;17.052;2023-05-10T08:07:52;100167.47;;;14.96;52.82
74310;BME280;62722;51.142;17.052;2023-05-10T08:10:19;100165.19;;;14.91;53.10
74310;BME280;62722;51.142;17.052;2023-05-10T08:12:46;100170.44;;;15.02;52.73
74310;BME280;62722;51.142;17.052;2023-05-10T08:15:14;100155.44;;;15.22;51.71
74310;BME280;62722;51.142;17.052;2023-05-10T08:17:43;100161.56;;;15.23;52.23
74310;BME280;62722;51.142;17.052;2023-05-10T08:20:10;100162.78;;;15.09;53.81
74310;BME280;62722;51.142;17.052;2023-05-10T08:22:42;100153.41;;;15.35;52.90
74310;BME280;62722;51.142;17.052;2023-05-10T08:25:09;100155.88;;;15.27;52.87
74310;BME280;62722;51.142;17.052;2023-05-10T08:27:37;100148.06;;;15.35;52.68
74310;BME280;62722;51.142;17.052;2023-05-10T08:30:05;100154.00;;;15.48;52.58
74310;BME280;62722;51.142;17.052;2023-05-10T08:32:33;100154.94;;;15.58;52.31
74310;BME280;62722;51.142;17.052;2023-05-10T08:35:02;100148.78;;;15.68;51.53
74310;BME280;62722;51.142;17.052;2023-05-10T08:37:29;100153.53;;;15.64;52.12
74310;BME280;62722;51.142;17.052;2023-05-10T08:39:58;100151.47;;;15.77;52.00
74310;BME280;62722;51.142;17.052;2023-05-10T08:42:28;100152.78;;;15.92;50.53
74310;BME280;62722;51.142;17.052;2023-05-10T08:44:57;100153.47;;;15.94;50.28
74310;BME280;62722;51.142;17.052;2023-05-10T08:47:26;100154.72;;;15.90;50.47
74310;BME280;62722;51.142;17.052;2023-05-10T08:49:54;100146.06;;;15.98;50.74
74310;BME280;62722;51.142;17.052;2023-05-10T08:52:25;100154.16;;;15.87;51.23
74310;BME280;62722;51.142;17.052;2023-05-10T08:54:53;100154.03;;;15.98;50.90
74310;BME280;62722;51.142;17.052;2023-05-10T08:57:21;100148.56;;;15.90;51.88
74310;BME280;62722;51.142;17.052;2023-05-10T08:59:48;100142.84;;;16.23;51.47
74310;BME280;62722;51.142;17.052;2023-05-10T09:02:16;100144.13;;;16.38;50.34
74310;BME280;62722;51.142;17.052;2023-05-10T09:04:45;100141.03;;;16.43;49.54
74310;BME280;62722;51.142;17.052;2023-05-10T09:07:12;100149.59;;;16.37;49.28
74310;BME280;62722;51.142;17.052;2023-05-10T09:09:41;100146.66;;;16.49;48.71
74310;BME280;62722;51.142;17.052;2023-05-10T09:12:09;100142.56;;;16.45;50.24
74310;BME280;62722;51.142;17.052;2023-05-10T09:14:38;100131.94;;;16.45;49.98
74310;BME280;62722;51.142;17.052;2023-05-10T09:17:06;100149.75;;;16.54;49.60
74310;BME280;62722;51.142;17.052;2023-05-10T09:19:34;100136.00;;;16.49;49.41
74310;BME280;62722;51.142;17.052;2023-05-10T09:22:01;100148.91;;;16.64;49.62
74310;BME280;62722;51.142;17.052;2023-05-10T09:24:30;100137.56;;;16.62;49.09
74310;BME280;62722;51.142;17.052;2023-05-10T09:26:58;100137.41;;;16.73;49.15
74310;BME280;62722;51.142;17.052;2023-05-10T09:29:26;100146.81;;;16.77;49.39
74310;BME280;62722;51.142;17.052;2023-05-10T09:31:53;100143.44;;;16.75;49.36
74310;BME280;62722;51.142;17.052;2023-05-10T09:34:29;100144.97;;;16.68;49.57
74310;BME280;62722;51.142;17.052;2023-05-10T09:36:58;100143.88;;;16.61;50.11
74310;BME280;62722;51.142;17.052;2023-05-10T09:39:33;100148.34;;;16.70;50.03
74310;BME280;62722;51.142;17.052;2023-05-10T09:42:04;100148.06;;;16.73;48.97
74310;BME280;62722;51.142;17.052;2023-05-10T09:44:33;100143.72;;;16.72;49.28
74310;BME280;62722;51.142;17.052;2023-05-10T09:47:01;100153.41;;;16.73;50.05
74310;BME280;62722;51.142;17.052;2023-05-10T09:49:29;100143.81;;;16.89;48.85
74310;BME280;62722;51.142;17.052;2023-05-10T09:52:01;100141.09;;;17.18;47.63
74310;BME280;62722;51.142;17.052;2023-05-10T09:54:31;100138.44;;;17.18;47.90
74310;BME280;62722;51.142;17.052;2023-05-10T09:56:59;100144.63;;;17.09;48.50
74310;BME280;62722;51.142;17.052;2023-05-10T09:59:29;100134.94;;;17.08;49.51
74310;BME280;62722;51.142;17.052;2023-05-10T10:01:57;100138.53;;;17.26;46.90
74310;BME280;62722;51.142;17.052;2023-05-10T10:04:25;100135.53;;;17.39;48.01
74310;BME280;62722;51.142;17.052;2023-05-10T10:07:03;100123.59;;;17.33;49.36
74310;BME280;62722;51.142;17.052;2023-05-10T10:09:32;100137.31;;;17.48;46.61
74310;BME280;62722;51.142;17.052;2023-05-10T10:11:59;100126.25;;;17.43;47.33
74310;BME280;62722;51.142;17.052;2023-05-10T10:14:28;100118.50;;;17.49;45.72
74310;BME280;62722;51.142;17.052;2023-05-10T10:16:56;100116.94;;;17.57;45.63
74310;BME280;62722;51.142;17.052;2023-05-10T10:19:24;100123.66;;;17.61;45.92
74310;BME280;62722;51.142;17.052;2023-05-10T10:21:52;100110.72;;;17.56;46.04
74310;BME280;62722;51.142;17.052;2023-05-10T10:24:19;100115.78;;;17.59;47.01
74310;BME280;62722;51.142;17.052;2023-05-10T10:26:47;100117.78;;;17.57;46.19
74310;BME280;62722;51.142;17.052;2023-05-10T10:29:21;100110.72;;;17.66;44.94
74310;BME280;62722;51.142;17.052;2023-05-10T10:31:57;100109.88;;;17.56;46.52
74310;BME280;62722;51.142;17.052;2023-05-10T10:34:30;100120.50;;;17.75;46.09
74310;BME280;62722;51.142;17.052;2023-05-10T10:37:04;100117.91;;;17.83;46.30
74310;BME280;62722;51.142;17.052;2023-05-10T10:39:32;100110.22;;;17.80;45.99
74310;BME280;62722;51.142;17.052;2023-05-10T10:42:02;100103.03;;;17.80;45.69
74310;BME280;62722;51.142;17.052;2023-05-10T10:44:39;100110.84;;;17.91;45.48
74310;BME280;62722;51.142;17.052;2023-05-10T10:47:21;100111.38;;;17.95;44.50
74310;BME280;62722;51.142;17.052;2023-05-10T10:49:52;100108.41;;;17.98;44.97
74310;BME280;62722;51.142;17.052;2023-05-10T10:52:31;100110.09;;;17.99;44.56
74310;BME280;62722;51.142;17.052;2023-05-10T10:55:01;100106.44;;;18.18;44.59
74310;BME280;62722;51.142;17.052;2023-05-10T10:57:31;100114.72;;;18.15;44.83
74310;BME280;62722;51.142;17.052;2023-05-10T11:00:18;100113.38;;;18.28;44.08
74310;BME280;62722;51.142;17.052;2023-05-10T11:02:48;100107.00;;;18.29;43.66
74310;BME280;62722;51.142;17.052;2023-05-10T11:05:35;100105.81;;;18.24;44.49
74310;BME280;62722;51.142;17.052;2023-05-10T11:08:08;100107.84;;;18.30;44.90
74310;BME280;62722;51.142;17.052;2023-05-10T11:10:36;100105.59;;;18.35;44.26
74310;BME280;62722;51.142;17.052;2023-05-10T11:13:06;100107.88;;;18.47;45.52
74310;BME280;62722;51.142;17.052;2023-05-10T11:15:35;100097.63;;;18.61;43.89
74310;BME280;62722;51.142;17.052;2023-05-10T11:18:18;100092.94;;;18.55;44.94
74310;BME280;62722;51.142;17.052;2023-05-10T11:20:50;100097.78;;;18.41;45.32
74310;BME280;62722;51.142;17.052;2023-05-10T11:23:18;100100.91;;;18.37;45.60
74310;BME280;62722;51.142;17.052;2023-05-10T11:25:48;100097.50;;;18.62;44.25
74310;BME280;62722;51.142;17.052;2023-05-10T11:28:17;100098.72;;;18.32;45.19
74310;BME280;62722;51.142;17.052;2023-05-10T11:30:45;100080.25;;;18.21;46.90
74310;BME280;62722;51.142;17.052;2023-05-10T11:33:17;100081.53;;;18.35;46.97
74310;BME280;62722;51.142;17.052;2023-05-10T11:35:45;100080.50;;;18.71;46.18
74310;BME280;62722;51.142;17.052;2023-05-10T11:38:13;100083.81;;;18.47;49.17
74310;BME280;62722;51.142;17.052;2023-05-10T11:40:41;100087.78;;;18.43;49.18
74310;BME280;62722;51.142;17.052;2023-05-10T11:43:09;100083.81;;;18.65;48.14
74310;BME280;62722;51.142;17.052;2023-05-10T11:45:38;100082.75;;;18.58;46.77
74310;BME280;62722;51.142;17.052;2023-05-10T11:48:07;100077.78;;;18.45;49.77
74310;BME280;62722;51.142;17.052;2023-05-10T11:50:36;100090.22;;;18.37;50.48
74310;BME280;62722;51.142;17.052;2023-05-10T11:53:03;100084.66;;;18.30;48.15
74310;BME280;62722;51.142;17.052;2023-05-10T11:55:33;100088.31;;;18.29;56.94
74310;BME280;62722;51.142;17.052;2023-05-10T11:58:01;100083.81;;;17.49;56.41
74310;BME280;62722;51.142;17.052;2023-05-10T12:00:30;100080.09;;;16.59;57.70
74310;BME280;62722;51.142;17.052;2023-05-10T12:03:00;100065.50;;;16.25;60.35
74310;BME280;62722;51.142;17.052;2023-05-10T12:05:28;100067.06;;;16.18;57.98
74310;BME280;62722;51.142;17.052;2023-05-10T12:08:12;100084.41;;;16.02;60.09
74310;BME280;62722;51.142;17.052;2023-05-10T12:10:40;100084.69;;;16.09;58.37
74310;BME280;62722;51.142;17.052;2023-05-10T12:13:11;100075.72;;;15.91;60.22
74310;BME280;62722;51.142;17.052;2023-05-10T12:15:40;100084.13;;;16.15;58.32
74310;BME280;62722;51.142;17.052;2023-05-10T12:18:08;100080.50;;;16.16;57.26
74310;BME280;62722;51.142;17.052;2023-05-10T12:20:36;100076.56;;;16.30;56.68
74310;BME280;62722;51.142;17.052;2023-05-10T12:23:03;100086.66;;;16.36;54.09
74310;BME280;62722;51.142;17.052;2023-05-10T12:25:34;100080.38;;;17.02;53.03
74310;BME280;62722;51.142;17.052;2023-05-10T12:28:03;100087.38;;;17.03;52.43
74310;BME280;62722;51.142;17.052;2023-05-10T12:30:34;100070.56;;;16.93;53.79
74310;BME280;62722;51.142;17.052;2023-05-10T12:33:02;100074.94;;;16.94;53.97
74310;BME280;62722;51.142;17.052;2023-05-10T12:35:30;100080.06;;;17.06;50.21
74310;BME280;62722;51.142;17.052;2023-05-10T12:37:58;100082.09;;;16.94;51.52
74310;BME280;62722;51.142;17.052;2023-05-10T12:40:25;100074.81;;;16.86;53.58
74310;BME280;62722;51.142;17.052;2023-05-10T12:42:54;100088.50;;;17.01;53.73
74310;BME280;62722;51.142;17.052;2023-05-10T12:45:21;100096.63;;;17.09;51.14
74310;BME280;62722;51.142;17.052;2023-05-10T12:47:49;100081.91;;;17.05;49.95
74310;BME280;62722;51.142;17.052;2023-05-10T12:50:16;100081.22;;;17.03;52.35
74310;BME280;62722;51.142;17.052;2023-05-10T12:52:43;100083.50;;;17.25;50.03